createdAt,value
2022-08-18T00:01:43.474Z,22.19
2022-08-18T00:06:50.633Z,22.10
2022-08-18T00:11:55.282Z,22.00
2022-08-18T00:16:59.855Z,21.96
2022-08-18T00:22:07.613Z,21.90
2022-08-18T00:27:13.583Z,21.82
2022-08-18T00:32:20.027Z,21.74
2022-08-18T00:37:27.701Z,21.66
2022-08-18T00:42:33.540Z,21.53
2022-08-18T00:47:43.104Z,21.47
2022-08-18T00:52:56.239Z,21.40
2022-08-18T00:58:06.697Z,21.34
2022-08-18T01:03:15.633Z,21.30
2022-08-18T01:08:32.421Z,21.23
2022-08-18T01:13:39.351Z,21.14
2022-08-18T01:18:56.387Z,21.07
2022-08-18T01:24:06.280Z,21.02
2022-08-18T01:29:18.956Z,20.86
2022-08-18T01:34:26.685Z,20.81
2022-08-18T01:41:00.951Z,20.74
2022-08-18T01:44:58.422Z,20.60
2022-08-18T01:50:03.475Z,20.52
2022-08-18T01:55:11.506Z,20.47
2022-08-18T02:00:21.496Z,20.36
2022-08-18T02:05:34.645Z,20.24
2022-08-18T02:10:43.168Z,20.17
2022-08-18T02:15:47.704Z,20.08
2022-08-18T02:20:52.499Z,20.05
2022-08-18T02:26:00.218Z,20.00
2022-08-18T02:31:08.175Z,19.96
2022-08-18T02:36:17.138Z,19.93
2022-08-18T02:41:26.226Z,19.91
2022-08-18T02:46:33.865Z,19.87
2022-08-18T02:51:39.086Z,19.87
2022-08-18T02:56:47.192Z,19.84
2022-08-18T03:01:54.366Z,19.80
2022-08-18T03:07:00.761Z,19.79
2022-08-18T03:12:13.947Z,19.74
2022-08-18T03:17:18.644Z,19.69
2022-08-18T03:22:28.300Z,19.63
2022-08-18T03:27:36.858Z,19.60
2022-08-18T03:32:41.455Z,19.52
2022-08-18T03:37:50.745Z,19.50
2022-08-18T03:42:58.872Z,19.51
2022-08-18T03:48:07.586Z,19.44
2022-08-18T03:53:12.196Z,19.42
2022-08-18T03:58:19.476Z,19.37
2022-08-18T04:03:24.355Z,19.12
2022-08-18T04:08:29.207Z,19.06
2022-08-18T04:13:39.460Z,19.00
2022-08-18T04:18:44.627Z,18.85
2022-08-18T04:23:49.131Z,18.84
2022-08-18T04:28:56.396Z,18.75
2022-08-18T04:34:03.584Z,18.67
2022-08-18T04:39:11.030Z,18.60
2022-08-18T04:44:19.140Z,18.56
2022-08-18T04:49:26.389Z,18.57
2022-08-18T04:54:31.256Z,18.60
2022-08-18T04:59:38.689Z,18.65
2022-08-18T05:04:47.233Z,18.68
2022-08-18T05:09:55.132Z,18.72
2022-08-18T05:15:03.109Z,18.72
2022-08-18T05:20:09.343Z,18.72
2022-08-18T05:25:16.314Z,18.73
2022-08-18T05:30:23.837Z,18.85
2022-08-18T05:35:34.454Z,18.95
2022-08-18T05:40:39.463Z,19.06
2022-08-18T05:45:47.178Z,19.20
2022-08-18T05:50:52.312Z,19.31
2022-08-18T05:56:17.260Z,19.44
2022-08-18T06:01:28.326Z,19.55
2022-08-18T06:06:35.657Z,19.62
2022-08-18T06:11:40.212Z,19.65
2022-08-18T06:16:56.345Z,19.74
2022-08-18T06:22:10.507Z,19.83
2022-08-18T06:27:23.997Z,19.91
2022-08-18T06:32:45.304Z,19.99
2022-08-18T06:38:12.900Z,20.08
2022-08-18T06:43:19.847Z,20.19
2022-08-18T06:48:35.142Z,20.26
2022-08-18T06:54:01.561Z,20.35
2022-08-18T06:59:25.810Z,20.40
2022-08-18T07:04:42.455Z,20.42
2022-08-18T07:09:47.538Z,20.52
2022-08-18T07:14:55.175Z,20.50
2022-08-18T07:20:10.414Z,20.57
2022-08-18T07:25:25.112Z,20.63
2022-08-18T07:30:36.784Z,20.65
2022-08-18T07:35:50.530Z,20.76
2022-08-18T07:41:00.826Z,20.83
2022-08-18T07:46:15.851Z,20.96
2022-08-18T07:51:37.129Z,21.01
2022-08-18T07:56:52.596Z,21.04
2022-08-18T08:02:07.142Z,21.01
2022-08-18T08:07:24.413Z,21.03
2022-08-18T08:12:41.285Z,21.03
2022-08-18T08:17:50.819Z,21.00
2022-08-18T08:23:15.209Z,21.03
2022-08-18T08:28:32.990Z,21.07
2022-08-18T08:33:44.619Z,21.14
2022-08-18T08:38:58.366Z,21.19
2022-08-18T08:44:09.261Z,21.23
2022-08-18T08:49:28.846Z,21.32
2022-08-18T08:54:44.119Z,21.40
2022-08-18T08:59:52.854Z,21.44
2022-08-18T09:05:08.692Z,21.38
2022-08-18T09:10:44.049Z,21.45
2022-08-18T09:16:13.810Z,21.63
2022-08-18T09:21:35.277Z,21.72
2022-08-18T09:26:52.791Z,21.72
2022-08-18T09:32:30.548Z,21.77
2022-08-18T09:37:50.283Z,21.73
2022-08-18T09:43:09.010Z,21.55
2022-08-18T09:48:30.483Z,21.51
2022-08-18T09:53:53.657Z,21.25
2022-08-18T09:59:10.982Z,20.94
2022-08-18T10:04:31.224Z,20.74
2022-08-18T10:09:47.421Z,20.22
2022-08-18T10:15:15.310Z,19.79
2022-08-18T10:20:48.528Z,19.55
2022-08-18T10:25:55.193Z,19.54
2022-08-18T10:31:11.206Z,19.59
2022-08-18T10:36:42.076Z,19.60
2022-08-18T10:42:03.200Z,19.51
2022-08-18T10:47:24.825Z,19.44
2022-08-18T10:52:45.305Z,19.33
2022-08-18T11:09:41.113Z,19.36
2022-08-18T11:15:23.091Z,19.45
2022-08-18T11:20:35.570Z,19.58
2022-08-18T11:25:42.159Z,19.74
2022-08-18T11:30:50.342Z,19.92
2022-08-18T11:36:01.687Z,20.11
2022-08-18T11:41:19.356Z,20.28
2022-08-18T11:46:33.503Z,20.45
2022-08-18T11:51:57.561Z,20.55
2022-08-18T11:57:49.306Z,20.62
2022-08-18T12:03:04.389Z,20.63
2022-08-18T12:08:54.499Z,20.61
2022-08-18T12:13:51.776Z,20.53
2022-08-18T12:19:00.871Z,20.36
2022-08-18T12:24:26.178Z,20.33
2022-08-18T12:29:43.282Z,20.27
2022-08-18T12:34:48.778Z,20.08
2022-08-18T12:40:00.478Z,20.07
2022-08-18T12:45:05.146Z,20.06
2022-08-18T12:50:13.423Z,20.01
2022-08-18T12:55:21.643Z,20.08
2022-08-18T13:00:28.126Z,20.20
2022-08-18T13:05:33.665Z,20.23
2022-08-18T13:10:45.386Z,20.38
2022-08-18T13:15:57.749Z,20.60
2022-08-18T13:21:07.173Z,20.69
2022-08-18T13:26:19.583Z,20.74
2022-08-18T13:31:24.798Z,20.81
2022-08-18T13:36:44.517Z,20.88
2022-08-18T13:41:55.036Z,21.01
2022-08-18T13:47:01.548Z,21.18
2022-08-18T13:52:12.267Z,21.37
2022-08-18T13:57:29.070Z,21.56
2022-08-18T14:02:34.627Z,21.83
2022-08-18T14:07:39.270Z,22.18
2022-08-18T14:12:49.739Z,22.57
2022-08-18T14:17:54.747Z,22.66
2022-08-18T14:23:14.608Z,22.84
2022-08-18T14:28:29.647Z,22.81
2022-08-18T14:33:50.902Z,22.85
2022-08-18T14:38:57.719Z,23.32
2022-08-18T14:44:13.522Z,23.64
2022-08-18T14:49:29.328Z,23.73
2022-08-18T14:54:34.789Z,24.07
2022-08-18T14:59:42.289Z,24.18
2022-08-18T15:04:52.991Z,24.40
2022-08-18T15:10:15.207Z,24.49
2022-08-18T15:15:24.910Z,24.83
2022-08-18T15:20:30.360Z,24.91
2022-08-18T15:25:44.949Z,24.72
2022-08-18T15:36:24.082Z,24.34
2022-08-18T15:41:44.167Z,24.19
2022-08-18T15:46:55.765Z,24.38
2022-08-18T15:52:01.311Z,24.27
2022-08-18T15:57:06.364Z,24.12
2022-08-18T16:02:19.246Z,23.93
2022-08-18T16:07:25.167Z,23.64
2022-08-18T16:12:46.526Z,23.56
2022-08-18T16:17:56.721Z,23.46
2022-08-18T16:23:01.437Z,23.15
2022-08-18T16:28:07.125Z,23.01
2022-08-18T16:33:14.385Z,23.09
2022-08-18T16:38:19.396Z,23.24
2022-08-18T16:43:24.053Z,23.48
2022-08-18T16:48:32.935Z,23.61
2022-08-18T16:53:39.774Z,23.74
2022-08-18T16:58:57.902Z,23.65
2022-08-18T17:04:14.781Z,23.60
2022-08-18T17:09:27.807Z,23.64
2022-08-18T17:14:37.377Z,23.50
2022-08-18T17:19:44.762Z,23.41
2022-08-18T17:24:51.699Z,23.24
2022-08-18T17:30:04.250Z,23.05
2022-08-18T17:35:20.333Z,22.82
2022-08-18T17:40:32.660Z,22.80
2022-08-18T17:45:38.709Z,22.69
2022-08-18T17:51:03.163Z,22.65
2022-08-18T17:56:12.653Z,22.57
2022-08-18T18:01:18.177Z,22.47
2022-08-18T18:06:33.647Z,22.34
2022-08-18T18:11:42.208Z,22.22
2022-08-18T18:16:46.962Z,22.19
2022-08-18T18:22:07.057Z,22.02
2022-08-18T18:27:31.108Z,21.98
2022-08-18T18:32:38.720Z,21.91
2022-08-18T18:37:49.477Z,21.76
2022-08-18T18:42:54.456Z,21.68
2022-08-18T18:48:06.985Z,21.66
2022-08-18T18:53:25.446Z,21.57
2022-08-18T18:58:42.647Z,21.52
2022-08-18T19:03:50.382Z,21.51
2022-08-18T19:09:08.561Z,21.45
2022-08-18T19:14:17.896Z,21.45
2022-08-18T19:19:38.045Z,21.44
2022-08-18T19:24:57.022Z,21.50
2022-08-18T19:30:06.776Z,21.52
2022-08-18T19:35:19.619Z,21.52
2022-08-18T19:40:32.266Z,21.49
2022-08-18T19:45:44.743Z,21.49
2022-08-18T19:50:55.957Z,21.46
2022-08-18T19:56:13.538Z,21.34
2022-08-18T20:01:33.483Z,21.37
2022-08-18T20:07:05.934Z,21.28
2022-08-18T20:12:23.944Z,21.34
2022-08-18T20:17:28.666Z,21.35
2022-08-18T20:22:39.176Z,21.28
2022-08-18T20:27:47.614Z,21.17
2022-08-18T20:33:11.151Z,21.04
2022-08-18T20:38:20.861Z,21.01
2022-08-18T20:43:35.045Z,20.85
2022-08-18T20:49:06.065Z,20.82
2022-08-18T20:54:29.929Z,20.72
2022-08-18T20:59:40.926Z,20.74
2022-08-18T21:04:52.125Z,20.80
2022-08-18T21:10:12.242Z,20.81
2022-08-18T21:15:20.608Z,20.75
2022-08-18T21:20:27.149Z,20.76
2022-08-18T21:25:32.811Z,20.72
2022-08-18T21:30:39.919Z,20.63
2022-08-18T21:35:44.760Z,20.64
2022-08-18T21:40:52.174Z,20.66
2022-08-18T21:46:00.343Z,20.65
2022-08-18T21:51:06.966Z,20.61
2022-08-18T21:56:23.235Z,20.49
2022-08-18T22:01:31.736Z,20.38
2022-08-18T22:06:42.054Z,20.28
2022-08-18T22:12:01.047Z,20.21
2022-08-18T22:17:43.177Z,20.21
2022-08-18T22:23:00.651Z,20.17
2022-08-18T22:28:05.855Z,20.13
2022-08-18T22:33:13.466Z,20.07
2022-08-18T22:38:19.254Z,20.05
2022-08-18T22:43:24.097Z,19.94
2022-08-18T22:48:31.543Z,19.92
2022-08-18T22:53:37.271Z,19.88
2022-08-18T22:58:42.806Z,19.79
2022-08-18T23:03:52.424Z,19.74
2022-08-18T23:08:57.018Z,19.60
2022-08-18T23:14:03.579Z,19.50
2022-08-18T23:19:10.815Z,19.36
2022-08-18T23:24:17.282Z,19.31
2022-08-18T23:29:23.245Z,19.27
2022-08-18T23:34:30.657Z,19.24
2022-08-18T23:39:38.749Z,19.21
2022-08-18T23:44:44.068Z,19.15
2022-08-18T23:49:51.588Z,19.14
2022-08-18T23:54:56.706Z,19.01
